Time;durP1;ratioP1;P1;durP2;ratioP2;P2;SDS_P1;SDS_P2;PMS_P1;PMS_P2;Temp;Humidity;BMP_temperature;BMP_pressure;BME280_temperature;BME280_humidity;BME280_pressure;Samples;Min_cycle;Max_cycle;Signal;HPM_P1;HPM_P2
2023/01/18 00:02:06;;;;;;;23.10;22.00;;;21.40;45.70;;;;;;5052633;28;21053;-66
2023/01/18 00:04:33;;;;;;;22.60;21.70;;;21.10;45.80;;;;;;5052958;28;20531;-67
2023/01/18 00:07:00;;;;;;;23.23;21.93;;;20.90;46.60;;;;;;5053180;28;20535;-67
2023/01/18 00:09:26;;;;;;;22.70;21.50;;;20.70;46.50;;;;;;5052261;28;20490;-66
2023/01/18 00:11:53;;;;;;;22.20;21.20;;;20.50;46.80;;;;;;5053427;28;20551;-67
2023/01/18 00:14:21;;;;;;;23.17;21.97;;;20.40;47.10;;;;;;5054550;28;20455;-65
2023/01/18 00:16:48;;;;;;;22.10;21.10;;;20.30;47.30;;;;;;5052117;28;20502;-66
2023/01/18 00:19:15;;;;;;;22.43;21.30;;;20.20;47.60;;;;;;5053076;28;20528;-66
2023/01/18 00:21:42;;;;;;;22.47;21.40;;;20.10;47.70;;;;;;5051451;28;21232;-66
2023/01/18 00:24:19;;;;;;;21.90;20.90;;;20.00;47.90;;;;;;5052176;28;20456;-66
2023/01/18 00:26:46;;;;;;;22.37;21.37;;;19.90;48.00;;;;;;5053950;28;20537;-66
2023/01/18 00:29:13;;;;;;;21.87;20.87;;;19.80;48.20;;;;;;5051738;28;20570;-66
2023/01/18 00:31:41;;;;;;;21.83;20.83;;;19.70;48.30;;;;;;5051657;28;20475;-67
2023/01/18 00:34:08;;;;;;;21.97;20.97;;;19.70;48.50;;;;;;5051968;28;20830;-67
2023/01/18 00:36:35;;;;;;;23.50;22.50;;;19.60;48.60;;;;;;5053696;28;20447;-66
2023/01/18 00:39:02;;;;;;;22.00;21.00;;;19.50;48.80;;;;;;5052313;28;20505;-66
2023/01/18 00:41:29;;;;;;;23.23;22.13;;;19.50;48.90;;;;;;5053008;28;20471;-66
2023/01/18 00:43:55;;;;;;;21.90;20.93;;;19.50;49.00;;;;;;5051757;28;20444;-66
2023/01/18 00:46:26;;;;;;;21.87;20.93;;;19.40;49.00;;;;;;5051672;28;20441;-66
2023/01/18 00:48:56;;;;;;;22.00;20.93;;;19.30;49.10;;;;;;5051464;28;20251;-66
2023/01/18 00:51:24;;;;;;;21.20;20.30;;;19.30;49.20;;;;;;5050502;28;20503;-67
2023/01/18 00:53:51;;;;;;;21.60;20.70;;;19.30;49.40;;;;;;5051570;28;20446;-66
2023/01/18 00:56:21;;;;;;;21.97;21.07;;;19.20;49.40;;;;;;5051666;28;20527;-66
2023/01/18 00:58:48;;;;;;;23.13;22.10;;;19.20;49.50;;;;;;5051472;28;20475;-66
2023/01/18 01:01:15;;;;;;;22.57;21.57;;;19.20;49.60;;;;;;5051037;28;20556;-66
2023/01/18 01:06:43;;;;;;;22.20;21.20;;;19.00;49.70;;;;;;5051525;28;20420;-66
2023/01/18 01:09:10;;;;;;;22.10;20.73;;;19.00;49.80;;;;;;5051171;28;20808;-66
2023/01/18 01:11:37;;;;;;;21.80;20.80;;;19.00;49.90;;;;;;5050965;28;20855;-66
2023/01/18 01:27:46;;;;;;;21.50;20.60;;;18.80;50.30;;;;;;5051398;28;20424;-66
2023/01/18 01:30:13;;;;;;;22.13;21.17;;;18.80;50.50;;;;;;5050558;28;20997;-66
2023/01/18 01:32:41;;;;;;;24.30;23.20;;;18.70;50.40;;;;;;5050779;28;20997;-65
2023/01/18 01:35:08;;;;;;;21.67;20.70;;;18.70;51.00;;;;;;5051202;28;20452;-66
2023/01/18 01:37:36;;;;;;;22.97;21.87;;;18.70;50.60;;;;;;5051070;28;20934;-66
2023/01/18 01:40:03;;;;;;;22.30;21.30;;;18.70;50.60;;;;;;5050589;28;20437;-66
2023/01/18 01:42:30;;;;;;;22.13;21.13;;;18.70;50.70;;;;;;5051018;28;20555;-67
2023/01/18 01:44:57;;;;;;;22.03;20.93;;;18.70;50.70;;;;;;5051032;28;20448;-66
2023/01/18 01:47:37;;;;;;;22.43;21.33;;;18.60;50.70;;;;;;5051074;28;20444;-66
2023/01/18 01:50:12;;;;;;;22.70;21.60;;;18.60;50.80;;;;;;5050564;28;20476;-67
2023/01/18 01:52:43;;;;;;;22.10;21.10;;;18.60;50.80;;;;;;5050913;28;20468;-66
2023/01/18 01:55:19;;;;;;;22.67;21.60;;;18.60;50.90;;;;;;5051073;28;20866;-66
2023/01/18 01:57:50;;;;;;;22.27;21.23;;;18.60;51.00;;;;;;5050525;28;20450;-67
2023/01/18 02:00:19;;;;;;;22.30;21.10;;;18.60;51.00;;;;;;5050720;28;20444;-66
2023/01/18 02:02:50;;;;;;;22.13;21.10;;;18.50;51.00;;;;;;5051410;28;20471;-66
2023/01/18 02:05:18;;;;;;;23.60;22.33;;;18.50;51.00;;;;;;5054783;28;20439;-66
2023/01/18 02:07:47;;;;;;;22.30;21.30;;;18.50;51.00;;;;;;5053826;28;20440;-66
2023/01/18 02:10:14;;;;;;;22.97;21.80;;;18.50;51.10;;;;;;5054097;28;21073;-66
2023/01/18 02:12:43;;;;;;;22.60;21.50;;;18.50;51.10;;;;;;5054117;28;20459;-66
2023/01/18 02:15:11;;;;;;;22.40;21.30;;;18.50;51.10;;;;;;5054383;28;20815;-66
2023/01/18 02:17:52;;;;;;;23.13;22.03;;;18.50;51.10;;;;;;5054018;28;20448;-65
2023/01/18 02:20:48;;;;;;;22.57;21.57;;;18.40;51.10;;;;;;5054089;28;20907;-67
2023/01/18 02:23:33;;;;;;;22.57;21.47;;;18.40;51.20;;;;;;5053586;28;20476;-67
2023/01/18 02:26:43;;;;;;;21.90;20.90;;;18.40;51.20;;;;;;5054131;28;20452;-66
2023/01/18 02:29:16;;;;;;;22.10;21.10;;;18.40;51.20;;;;;;5033989;28;20440;-67
2023/01/18 02:31:53;;;;;;;22.57;21.57;;;18.40;51.30;;;;;;5034097;28;20947;-67
2023/01/18 02:34:29;;;;;;;22.10;21.10;;;18.30;51.30;;;;;;5034547;28;20463;-65
2023/01/18 02:37:06;;;;;;;22.50;21.40;;;18.40;51.40;;;;;;5040342;28;20456;-66
2023/01/18 02:39:38;;;;;;;23.00;21.50;;;18.40;51.40;;;;;;5053670;28;20451;-67
2023/01/18 02:47:48;;;;;;;22.67;21.57;;;18.30;51.40;;;;;;5053466;28;20468;-65
2023/01/18 02:50:23;;;;;;;22.70;21.70;;;18.30;51.40;;;;;;5053390;28;20486;-66
2023/01/18 02:52:50;;;;;;;21.83;20.93;;;18.30;51.40;;;;;;5053518;28;20467;-66
2023/01/18 02:55:29;;;;;;;22.27;21.27;;;18.30;51.50;;;;;;5053496;28;20995;-66
2023/01/18 02:58:01;;;;;;;22.67;21.57;;;18.30;51.50;;;;;;5053359;28;20539;-66
2023/01/18 03:00:32;;;;;;;22.37;21.30;;;18.30;51.50;;;;;;5053318;28;20972;-65
2023/01/18 03:02:59;;;;;;;22.70;21.40;;;18.30;51.50;;;;;;5053583;28;20551;-66
2023/01/18 03:05:27;;;;;;;24.00;22.70;;;18.30;51.50;;;;;;5053403;28;20447;-65
2023/01/18 03:08:04;;;;;;;23.20;22.00;;;18.30;51.50;;;;;;5052978;28;20441;-66
2023/01/18 03:10:35;;;;;;;23.00;21.90;;;18.20;51.50;;;;;;5053106;28;20484;-66
2023/01/18 03:13:09;;;;;;;22.60;21.60;;;18.20;51.40;;;;;;5053200;28;20985;-66
2023/01/18 03:15:45;;;;;;;22.50;21.50;;;18.20;51.50;;;;;;5052216;28;20443;-66
2023/01/18 03:18:17;;;;;;;22.40;21.40;;;18.20;51.50;;;;;;5053030;28;20459;-66
2023/01/18 03:20:54;;;;;;;23.20;22.03;;;18.20;51.50;;;;;;5052886;28;20811;-66
2023/01/18 03:23:38;;;;;;;22.30;21.30;;;18.20;51.40;;;;;;5052987;28;20444;-65
2023/01/18 03:26:08;;;;;;;22.43;21.43;;;18.20;51.50;;;;;;5053185;28;20445;-65
2023/01/18 03:34:21;;;;;;;23.00;21.90;;;18.20;51.60;;;;;;5052932;28;20526;-66
2023/01/18 03:36:52;;;;;;;23.27;22.17;;;18.20;51.60;;;;;;5052650;28;20819;-66
2023/01/18 03:39:27;;;;;;;22.03;21.03;;;18.10;51.50;;;;;;5052828;28;20444;-66
2023/01/18 03:41:59;;;;;;;22.67;21.57;;;18.10;51.50;;;;;;5052594;28;20534;-66
2023/01/18 03:44:33;;;;;;;22.43;21.43;;;18.10;51.60;;;;;;5052588;28;20929;-65
2023/01/18 03:47:03;;;;;;;22.87;21.87;;;18.10;51.60;;;;;;5052885;28;20451;-66
2023/01/18 03:49:31;;;;;;;22.73;21.63;;;18.10;51.60;;;;;;5052371;28;20798;-66
2023/01/18 03:52:09;;;;;;;23.20;22.17;;;18.10;51.60;;;;;;5052318;28;20484;-66
2023/01/18 03:54:42;;;;;;;23.00;21.90;;;18.10;51.60;;;;;;5052442;28;20448;-66
2023/01/18 03:57:17;;;;;;;22.57;21.50;;;18.10;51.60;;;;;;5052188;28;20458;-66
2023/01/18 03:59:44;;;;;;;24.00;22.63;;;18.10;51.60;;;;;;5052455;28;20442;-66
2023/01/18 04:02:13;;;;;;;23.03;21.97;;;18.10;51.70;;;;;;5052209;28;20470;-66
2023/01/18 04:04:39;;;;;;;22.90;21.80;;;18.10;51.70;;;;;;5052159;28;20455;-65
2023/01/18 04:07:06;;;;;;;22.53;21.53;;;18.10;51.70;;;;;;5051874;28;20540;-66
2023/01/18 04:09:33;;;;;;;23.23;22.07;;;18.10;51.70;;;;;;5051925;28;20451;-66
2023/01/18 04:12:00;;;;;;;22.77;21.77;;;18.10;51.70;;;;;;5051972;28;20566;-66
2023/01/18 04:14:26;;;;;;;22.43;21.43;;;18.10;51.60;;;;;;5052037;28;20536;-66
2023/01/18 04:16:53;;;;;;;23.33;22.13;;;18.10;51.60;;;;;;5051897;28;20576;-66
2023/01/18 04:19:21;;;;;;;23.20;22.10;;;18.10;51.60;;;;;;5051948;28;20458;-66
2023/01/18 04:21:48;;;;;;;23.20;22.10;;;18.10;51.60;;;;;;5051819;28;20470;-66
2023/01/18 04:24:16;;;;;;;23.07;21.97;;;18.10;51.60;;;;;;5051847;28;20530;-66
2023/01/18 04:26:42;;;;;;;23.40;22.07;;;18.20;51.60;;;;;;5051495;28;20444;-66
2023/01/18 04:29:09;;;;;;;23.00;21.90;;;18.10;51.50;;;;;;5051904;28;20539;-66
2023/01/18 04:31:36;;;;;;;23.20;22.20;;;18.20;51.60;;;;;;5051854;28;20907;-66
2023/01/18 04:34:03;;;;;;;23.90;22.70;;;18.20;51.60;;;;;;5051745;28;20444;-66
2023/01/18 04:36:31;;;;;;;23.90;22.60;;;18.20;51.60;;;;;;5051823;28;20532;-66
2023/01/18 04:38:58;;;;;;;22.40;21.50;;;18.20;51.60;;;;;;5051605;28;20447;-66
2023/01/18 04:41:25;;;;;;;23.67;22.53;;;18.20;51.60;;;;;;5051405;28;20985;-66
2023/01/18 04:43:52;;;;;;;23.80;22.70;;;18.20;51.60;;;;;;5051531;28;20463;-66
2023/01/18 04:46:19;;;;;;;23.77;22.57;;;18.20;51.60;;;;;;5051735;28;20546;-66
2023/01/18 04:48:49;;;;;;;24.63;22.97;;;18.20;51.60;;;;;;5051471;28;20534;-66
2023/01/18 04:51:16;;;;;;;23.00;21.80;;;18.30;51.60;;;;;;5051354;28;20901;-66
2023/01/18 04:53:45;;;;;;;23.17;22.10;;;18.20;51.60;;;;;;5051472;28;20548;-67
2023/01/18 04:56:12;;;;;;;24.50;23.20;;;18.30;51.60;;;;;;5054559;28;20456;-66
2023/01/18 04:58:39;;;;;;;24.07;22.97;;;18.30;51.50;;;;;;5056460;28;20505;-66
2023/01/18 05:01:07;;;;;;;23.93;22.77;;;18.30;51.50;;;;;;5050024;28;20464;-66
2023/01/18 05:03:37;;;;;;;24.20;23.10;;;18.30;51.40;;;;;;5051220;28;20437;-66
2023/01/18 05:06:05;;;;;;;24.40;23.23;;;18.40;51.50;;;;;;5051439;28;20933;-66
2023/01/18 05:08:33;;;;;;;24.60;23.40;;;18.40;51.50;;;;;;5051388;28;20451;-66
2023/01/18 05:11:03;;;;;;;24.70;23.60;;;18.30;51.50;;;;;;5051215;28;20602;-66
2023/01/18 05:13:30;;;;;;;24.10;23.00;;;18.30;51.50;;;;;;5051158;28;20451;-66
2023/01/18 05:15:58;;;;;;;24.33;23.23;;;18.30;51.50;;;;;;5031500;28;20445;-66
2023/01/18 05:18:25;;;;;;;23.70;22.70;;;18.30;51.50;;;;;;5048811;28;20884;-65
2023/01/18 05:20:52;;;;;;;24.17;22.90;;;18.30;51.50;;;;;;5051023;28;20436;-66
2023/01/18 05:23:19;;;;;;;24.33;23.23;;;18.30;51.50;;;;;;5051299;28;20880;-66
2023/01/18 05:25:51;;;;;;;24.20;23.10;;;18.40;51.60;;;;;;5051291;28;20444;-66
2023/01/18 05:28:20;;;;;;;24.70;23.60;;;18.40;51.60;;;;;;5051301;28;20450;-66
2023/01/18 05:30:48;;;;;;;24.27;23.17;;;18.40;51.50;;;;;;5050940;28;20482;-67
2023/01/18 05:33:16;;;;;;;24.60;23.43;;;18.40;51.50;;;;;;5051202;28;20448;-66
2023/01/18 05:35:48;;;;;;;24.57;23.40;;;18.40;51.50;;;;;;5050940;28;20459;-66
2023/01/18 05:38:15;;;;;;;25.03;23.83;;;18.40;51.50;;;;;;5052786;28;20998;-67
2023/01/18 05:40:44;;;;;;;24.87;23.67;;;18.40;51.60;;;;;;5054850;28;20436;-66
2023/01/18 05:43:11;;;;;;;24.50;23.30;;;18.40;51.60;;;;;;5054931;28;20820;-66
2023/01/18 05:45:41;;;;;;;24.87;23.50;;;18.40;51.60;;;;;;5055077;28;20538;-66
2023/01/18 05:48:08;;;;;;;24.60;23.40;;;18.40;51.60;;;;;;5054801;28;20531;-66
2023/01/18 05:50:35;;;;;;;23.80;22.70;;;18.40;51.50;;;;;;5054478;28;20526;-66
2023/01/18 05:53:02;;;;;;;24.97;23.83;;;18.50;51.50;;;;;;5054655;28;20474;-66
2023/01/18 05:55:30;;;;;;;24.63;23.43;;;18.50;51.50;;;;;;5054566;28;20958;-66
2023/01/18 05:57:57;;;;;;;23.87;22.77;;;18.50;51.50;;;;;;5054708;28;20544;-66
2023/01/18 06:00:24;;;;;;;24.10;22.90;;;18.50;51.50;;;;;;5054503;28;20599;-66
2023/01/18 06:02:53;;;;;;;24.63;23.33;;;18.50;51.50;;;;;;5054143;28;20479;-66
2023/01/18 06:05:20;;;;;;;25.67;24.47;;;18.50;51.50;;;;;;5054419;28;20448;-66
2023/01/18 06:07:48;;;;;;;25.10;23.80;;;18.50;51.50;;;;;;5054395;28;20603;-66
2023/01/18 06:10:15;;;;;;;26.50;25.20;;;18.50;51.50;;;;;;5054183;28;20452;-66
2023/01/18 06:12:42;;;;;;;23.33;22.10;;;18.60;51.60;;;;;;5054132;28;20514;-66
2023/01/18 06:15:11;;;;;;;26.47;24.83;;;18.60;51.80;;;;;;5054279;28;20534;-66
2023/01/18 06:17:38;;;;;;;27.33;25.83;;;18.60;52.50;;;;;;5054348;28;20993;-66
2023/01/18 06:20:09;;;;;;;27.07;25.13;;;18.70;52.80;;;;;;5053985;28;20813;-66
2023/01/18 06:22:39;;;;;;;28.63;26.30;;;18.80;53.10;;;;;;5055218;28;20837;-66
2023/01/18 06:25:07;;;;;;;30.00;26.80;;;18.80;54.40;;;;;;5056206;28;20456;-66
2023/01/18 06:27:36;;;;;;;27.67;25.50;;;18.90;56.10;;;;;;5056464;28;20570;-65
2023/01/18 06:30:05;;;;;;;28.30;26.27;;;18.90;58.00;;;;;;5053904;28;20455;-59
2023/01/18 06:32:32;;;;;;;28.73;26.73;;;18.90;57.80;;;;;;5053672;28;20487;-59
2023/01/18 06:34:59;;;;;;;28.57;26.40;;;18.90;59.40;;;;;;5053878;28;20487;-58
2023/01/18 06:37:27;;;;;;;29.57;27.27;;;18.90;60.00;;;;;;5053963;28;20459;-59
2023/01/18 06:39:55;;;;;;;28.00;25.80;;;18.90;60.60;;;;;;5054004;28;20466;-59
2023/01/18 06:42:22;;;;;;;28.17;25.70;;;18.90;60.60;;;;;;5053935;28;20476;-54
2023/01/18 06:44:49;;;;;;;26.57;25.00;;;18.90;61.70;;;;;;5053757;28;20448;-61
2023/01/18 06:47:18;;;;;;;26.97;25.07;;;18.90;61.90;;;;;;5053721;28;20863;-58
2023/01/18 06:49:45;;;;;;;27.50;25.00;;;19.00;63.50;;;;;;5053184;28;20452;-59
2023/01/18 06:52:12;;;;;;;28.23;25.47;;;19.00;62.80;;;;;;5053375;28;20488;-59
2023/01/18 06:54:40;;;;;;;27.73;25.27;;;19.00;63.40;;;;;;5053597;28;20527;-66
2023/01/18 06:57:07;;;;;;;27.10;24.73;;;19.00;63.10;;;;;;5052881;28;20536;-65
2023/01/18 06:59:34;;;;;;;27.20;25.30;;;19.10;62.70;;;;;;5052599;28;20447;-65
2023/01/18 07:02:01;;;;;;;26.20;24.30;;;19.20;63.70;;;;;;5053328;28;21072;-65
2023/01/18 07:04:28;;;;;;;26.63;25.03;;;19.30;63.50;;;;;;5053357;28;20798;-65
2023/01/18 07:06:55;;;;;;;28.30;26.13;;;19.40;62.50;;;;;;5053380;28;20445;-65
2023/01/18 07:09:21;;;;;;;27.87;25.43;;;19.50;61.40;;;;;;5053110;28;20858;-65
2023/01/18 07:11:50;;;;;;;27.20;25.40;;;19.60;60.30;;;;;;5053292;28;20488;-64
2023/01/18 07:14:17;;;;;;;26.77;25.07;;;19.60;59.50;;;;;;5053261;28;20454;-64
2023/01/18 07:16:44;;;;;;;27.33;25.47;;;19.60;58.80;;;;;;5053298;28;20527;-64
2023/01/18 07:19:10;;;;;;;26.57;24.77;;;19.70;58.30;;;;;;5052824;28;20466;-64
2023/01/18 07:21:38;;;;;;;24.57;23.00;;;19.80;57.90;;;;;;5053195;28;20466;-64
2023/01/18 07:24:06;;;;;;;25.50;24.03;;;19.80;57.40;;;;;;5053067;28;20786;-64
2023/01/18 07:26:32;;;;;;;25.60;23.80;;;19.90;57.00;;;;;;5053022;28;20454;-64
2023/01/18 07:29:01;;;;;;;25.07;23.67;;;19.90;57.10;;;;;;5053071;28;20441;-64
2023/01/18 07:31:27;;;;;;;25.73;24.43;;;19.80;56.10;;;;;;5052701;28;20490;-65
2023/01/18 07:33:54;;;;;;;25.67;24.07;;;19.90;55.80;;;;;;5053078;28;20446;-64
2023/01/18 07:36:21;;;;;;;25.47;23.90;;;19.90;55.50;;;;;;5052799;28;20535;-64
2023/01/18 07:38:48;;;;;;;25.33;23.73;;;19.90;55.20;;;;;;5052650;28;20581;-65
2023/01/18 07:41:16;;;;;;;24.77;23.37;;;19.90;54.90;;;;;;5052518;28;20530;-64
2023/01/18 07:43:44;;;;;;;25.73;24.17;;;19.90;54.60;;;;;;5052635;28;20952;-64
2023/01/18 07:46:15;;;;;;;25.90;24.20;;;19.90;54.40;;;;;;5052980;28;20451;-65
2023/01/18 07:48:43;;;;;;;25.10;23.70;;;19.90;54.20;;;;;;5052518;28;20527;-66
2023/01/18 07:51:10;;;;;;;25.47;24.17;;;19.90;54.00;;;;;;5052128;28;20488;-64
2023/01/18 07:53:38;;;;;;;25.00;23.60;;;19.90;53.80;;;;;;5052418;28;20440;-65
2023/01/18 07:56:07;;;;;;;25.13;23.53;;;19.90;53.60;;;;;;5052397;28;20443;-64
2023/01/18 07:58:35;;;;;;;26.53;25.13;;;19.90;53.40;;;;;;5052360;28;20444;-64
2023/01/18 08:01:05;;;;;;;24.80;23.60;;;19.90;53.20;;;;;;5051508;28;20452;-65
2023/01/18 08:03:34;;;;;;;24.40;23.27;;;19.90;53.10;;;;;;5052368;28;21009;-65
2023/01/18 08:06:01;;;;;;;25.63;24.23;;;19.90;53.00;;;;;;5052304;28;20466;-65
2023/01/18 08:08:28;;;;;;;26.20;24.77;;;19.90;52.80;;;;;;5052416;28;20444;-64
2023/01/18 08:10:56;;;;;;;26.07;24.50;;;19.90;52.70;;;;;;5052159;28;20440;-64
2023/01/18 08:13:23;;;;;;;25.63;24.23;;;19.90;52.50;;;;;;5052195;28;20996;-65
2023/01/18 08:15:50;;;;;;;25.90;24.50;;;19.90;52.40;;;;;;5052001;28;20450;-65
2023/01/18 08:18:17;;;;;;;25.07;23.87;;;19.90;52.30;;;;;;5052278;28;20593;-65
2023/01/18 08:20:46;;;;;;;24.83;23.50;;;19.80;52.10;;;;;;5051835;28;20448;-65
2023/01/18 08:23:13;;;;;;;24.87;23.67;;;19.80;52.00;;;;;;5051925;28;20444;-65
2023/01/18 08:25:40;;;;;;;26.27;24.90;;;19.80;51.90;;;;;;5052031;28;20460;-65
2023/01/18 08:28:08;;;;;;;24.80;23.53;;;19.80;51.80;;;;;;5051825;28;20810;-65
2023/01/18 08:30:37;;;;;;;25.67;24.27;;;19.80;51.70;;;;;;5051581;28;20448;-65
2023/01/18 08:33:06;;;;;;;25.90;24.50;;;19.80;51.70;;;;;;5051828;28;20490;-65
2023/01/18 08:35:39;;;;;;;25.07;23.77;;;19.80;51.60;;;;;;5051829;28;20512;-65
2023/01/18 08:38:07;;;;;;;25.10;23.70;;;19.70;51.40;;;;;;5051965;28;20455;-65
2023/01/18 08:40:34;;;;;;;25.43;24.03;;;19.70;51.30;;;;;;5051515;28;20452;-65
2023/01/18 08:43:02;;;;;;;25.50;24.20;;;19.70;51.30;;;;;;5051641;28;20571;-65
2023/01/18 08:45:29;;;;;;;25.17;23.87;;;19.70;51.30;;;;;;5051830;28;20452;-65
2023/01/18 08:47:57;;;;;;;26.63;25.17;;;19.70;51.20;;;;;;5051549;28;20444;-65
2023/01/18 08:50:24;;;;;;;25.77;24.47;;;19.70;51.20;;;;;;5051254;28;20445;-65
2023/01/18 08:52:52;;;;;;;26.03;24.63;;;19.70;51.10;;;;;;5051436;28;20488;-65
2023/01/18 08:55:21;;;;;;;23.97;22.87;;;19.70;51.00;;;;;;5051701;28;20877;-65
2023/01/18 08:57:48;;;;;;;25.20;23.80;;;19.60;50.90;;;;;;5051439;28;20538;-66
2023/01/18 09:00:16;;;;;;;26.27;24.67;;;19.60;50.80;;;;;;5051303;28;20541;-64
2023/01/18 09:02:43;;;;;;;25.00;23.80;;;19.60;50.80;;;;;;5051397;28;20459;-65
2023/01/18 09:05:10;;;;;;;23.70;22.70;;;19.60;50.70;;;;;;5051441;28;20445;-65
2023/01/18 09:07:36;;;;;;;24.70;23.40;;;19.50;50.70;;;;;;5051561;28;20450;-65
2023/01/18 09:10:04;;;;;;;26.00;24.67;;;19.50;50.70;;;;;;5051434;28;20535;-65
2023/01/18 09:12:33;;;;;;;24.60;23.40;;;19.50;50.60;;;;;;5051485;28;20490;-65
2023/01/18 09:15:00;;;;;;;25.87;24.60;;;19.40;50.60;;;;;;5055416;28;20448;-66
2023/01/18 09:17:27;;;;;;;24.10;22.93;;;19.40;50.50;;;;;;5055419;28;20446;-65
2023/01/18 09:19:54;;;;;;;24.33;23.13;;;19.40;50.40;;;;;;5055344;28;20454;-65
2023/01/18 09:22:22;;;;;;;24.80;23.60;;;19.40;50.50;;;;;;5055208;28;20486;-65
2023/01/18 09:24:49;;;;;;;25.40;24.10;;;19.40;50.50;;;;;;5055667;28;20539;-65
2023/01/18 09:27:16;;;;;;;25.33;23.90;;;19.30;50.40;;;;;;5055340;28;20449;-65
2023/01/18 09:29:45;;;;;;;25.30;23.90;;;19.30;50.40;;;;;;5055219;28;20444;-65
2023/01/18 09:32:12;;;;;;;26.07;24.67;;;19.30;50.30;;;;;;5055040;28;20492;-66
2023/01/18 09:34:39;;;;;;;26.13;24.63;;;19.30;50.30;;;;;;5054991;28;20443;-65
2023/01/18 09:37:06;;;;;;;26.40;25.10;;;19.30;50.30;;;;;;5055177;28;20793;-65
2023/01/18 09:39:33;;;;;;;25.30;24.00;;;19.20;50.20;;;;;;5055003;28;20941;-65
2023/01/18 09:42:03;;;;;;;23.97;22.87;;;19.20;50.20;;;;;;5054763;28;20566;-65
2023/01/18 09:44:33;;;;;;;25.00;23.73;;;19.20;50.20;;;;;;5055194;28;20521;-65
2023/01/18 09:47:05;;;;;;;25.43;24.13;;;19.20;50.10;;;;;;5055132;28;20429;-65
2023/01/18 09:49:37;;;;;;;25.13;23.83;;;19.10;50.10;;;;;;5054703;28;20444;-65
2023/01/18 09:52:27;;;;;;;24.73;23.63;;;19.10;50.10;;;;;;5054722;28;20479;-65
2023/01/18 09:55:00;;;;;;;24.37;23.17;;;19.10;50.10;;;;;;5054768;28;20452;-66
2023/01/18 09:57:39;;;;;;;24.77;23.37;;;19.10;50.10;;;;;;5054688;28;20440;-64
2023/01/18 10:00:17;;;;;;;23.97;22.87;;;19.00;50.20;;;;;;5054447;28;20440;-66
2023/01/18 10:02:50;;;;;;;25.23;23.90;;;19.10;50.20;;;;;;5054534;28;20464;-65
2023/01/18 10:05:21;;;;;;;25.23;24.03;;;19.00;50.10;;;;;;5054615;28;20474;-64
2023/01/18 10:08:01;;;;;;;24.33;23.07;;;19.00;50.10;;;;;;5054490;28;20447;-65
2023/01/18 10:10:32;;;;;;;25.17;23.97;;;19.00;50.10;;;;;;5054393;28;20819;-65
2023/01/18 10:13:17;;;;;;;25.20;23.90;;;19.00;50.10;;;;;;5054328;28;21011;-64
2023/01/18 10:15:44;;;;;;;25.50;24.20;;;18.90;49.90;;;;;;5054292;28;20442;-64
2023/01/18 10:18:16;;;;;;;25.30;24.10;;;18.90;50.00;;;;;;5054261;28;20446;-64
2023/01/18 10:20:49;;;;;;;25.80;24.50;;;18.90;50.00;;;;;;5054141;28;20543;-64
2023/01/18 10:23:24;;;;;;;25.17;23.90;;;18.90;49.90;;;;;;5053804;28;20953;-64
2023/01/18 10:25:55;;;;;;;24.73;23.53;;;18.80;49.90;;;;;;5054324;28;20443;-64
2023/01/18 10:28:38;;;;;;;25.33;24.13;;;18.80;49.90;;;;;;5054101;28;20455;-65
2023/01/18 10:31:17;;;;;;;25.97;24.57;;;18.80;49.90;;;;;;5053925;28;21039;-65
2023/01/18 10:33:47;;;;;;;24.83;23.63;;;18.80;49.90;;;;;;5054068;28;20537;-66
2023/01/18 10:36:19;;;;;;;25.33;24.10;;;18.80;50.00;;;;;;5053927;28;20938;-65
2023/01/18 10:38:47;;;;;;;25.03;23.73;;;18.80;49.90;;;;;;5053899;28;20440;-65
2023/01/18 10:41:19;;;;;;;25.03;23.70;;;18.70;49.90;;;;;;5053631;28;20985;-66
2023/01/18 10:43:46;;;;;;;26.20;24.93;;;18.70;49.90;;;;;;5053775;28;20451;-67
2023/01/18 10:46:14;;;;;;;25.27;24.00;;;18.70;49.80;;;;;;5053794;28;20942;-66
2023/01/18 10:48:46;;;;;;;25.77;24.47;;;18.70;49.80;;;;;;5053652;28;20452;-67
2023/01/18 10:51:26;;;;;;;24.93;23.63;;;18.70;49.80;;;;;;5053620;28;20470;-68
2023/01/18 10:53:53;;;;;;;24.60;23.50;;;18.70;49.80;;;;;;5053667;28;20842;-67
2023/01/18 10:56:24;;;;;;;24.83;23.53;;;18.70;49.80;;;;;;5053623;28;20491;-67
2023/01/18 10:58:56;;;;;;;24.63;23.43;;;18.70;49.80;;;;;;5053625;28;20534;-67
2023/01/18 11:01:26;;;;;;;25.23;23.93;;;18.70;49.90;;;;;;5053407;28;20468;-67
2023/01/18 11:03:56;;;;;;;24.77;23.57;;;18.60;49.80;;;;;;5053445;28;20963;-66
2023/01/18 11:06:25;;;;;;;25.00;23.70;;;18.70;49.80;;;;;;5053468;28;20449;-66
2023/01/18 11:08:52;;;;;;;25.30;24.10;;;18.60;49.80;;;;;;5053242;28;20448;-66
2023/01/18 11:14:24;;;;;;;25.50;24.23;;;18.60;49.80;;;;;;5052948;28;20499;-67
2023/01/18 11:16:58;;;;;;;24.53;23.43;;;18.60;49.80;;;;;;5053258;28;20450;-66
2023/01/18 11:19:27;;;;;;;24.70;23.50;;;18.60;49.80;;;;;;5053230;28;20444;-66
2023/01/18 11:21:54;;;;;;;24.37;23.27;;;18.60;49.80;;;;;;5052980;28;20553;-66
2023/01/18 11:24:26;;;;;;;25.23;24.07;;;18.60;49.80;;;;;;5053133;28;20531;-66
2023/01/18 11:26:56;;;;;;;24.83;23.63;;;18.60;49.80;;;;;;5053133;28;20459;-65
2023/01/18 11:29:27;;;;;;;25.07;23.77;;;18.60;49.80;;;;;;5053158;28;20444;-66
2023/01/18 11:31:54;;;;;;;25.63;24.43;;;18.60;49.80;;;;;;5052794;28;20470;-66
2023/01/18 11:34:30;;;;;;;25.20;23.93;;;18.60;49.80;;;;;;5052745;28;20480;-65
2023/01/18 11:36:58;;;;;;;25.00;23.57;;;18.50;49.70;;;;;;5052019;28;20893;-65
2023/01/18 11:39:30;;;;;;;25.20;24.00;;;18.50;49.60;;;;;;5052552;28;20444;-66
2023/01/18 11:42:21;;;;;;;25.17;23.97;;;18.50;49.70;;;;;;5052582;28;20475;-66
2023/01/18 11:44:57;;;;;;;24.80;23.60;;;18.50;49.60;;;;;;5052581;28;20862;-66
2023/01/18 11:47:31;;;;;;;24.77;23.60;;;18.50;49.60;;;;;;5052639;28;20444;-66
2023/01/18 11:50:04;;;;;;;23.87;22.77;;;18.50;49.70;;;;;;5052320;28;20506;-66
2023/01/18 11:52:42;;;;;;;24.73;23.43;;;18.50;50.20;;;;;;5052313;28;20464;-66
2023/01/18 11:55:20;;;;;;;24.03;22.93;;;18.40;49.50;;;;;;5052519;28;20937;-66
2023/01/18 11:57:47;;;;;;;25.40;24.00;;;18.50;49.60;;;;;;5052329;28;20462;-66
2023/01/18 12:00:16;;;;;;;24.67;23.47;;;18.50;49.70;;;;;;5052087;28;20440;-66
2023/01/18 12:03:04;;;;;;;25.43;24.13;;;18.40;49.60;;;;;;5052521;28;20460;-66
2023/01/18 12:05:56;;;;;;;25.40;24.00;;;18.40;49.50;;;;;;5052328;28;20448;-66
2023/01/18 12:08:43;;;;;;;24.87;23.60;;;18.40;49.60;;;;;;5047749;28;20449;-66
2023/01/18 12:11:24;;;;;;;24.40;23.20;;;18.40;49.60;;;;;;5052000;28;20466;-66
2023/01/18 12:14:00;;;;;;;25.10;23.90;;;18.40;49.60;;;;;;5052017;28;20483;-66
2023/01/18 12:16:40;;;;;;;25.10;23.90;;;18.40;49.60;;;;;;5052120;28;20443;-66
2023/01/18 12:19:37;;;;;;;24.63;23.43;;;18.40;49.60;;;;;;5052144;28;20456;-66
2023/01/18 12:22:24;;;;;;;25.00;23.70;;;18.40;49.60;;;;;;5052061;28;20470;-66
2023/01/18 12:25:08;;;;;;;24.77;23.57;;;18.30;49.50;;;;;;5052043;28;20809;-66
2023/01/18 12:27:43;;;;;;;24.70;23.50;;;18.30;49.60;;;;;;5052126;28;20444;-66
2023/01/18 12:30:32;;;;;;;23.63;22.53;;;18.40;49.60;;;;;;5051591;28;21004;-66
2023/01/18 12:33:12;;;;;;;24.30;23.10;;;18.30;49.50;;;;;;5051742;28;20484;-66
2023/01/18 12:35:56;;;;;;;24.20;23.07;;;18.40;49.60;;;;;;5052103;28;20538;-65
2023/01/18 12:38:28;;;;;;;24.43;23.20;;;18.40;49.50;;;;;;5051866;28;20440;-65
2023/01/18 12:44:02;;;;;;;26.23;25.00;;;18.40;49.50;;;;;;5012281;28;20860;-56
2023/01/18 12:46:33;;;;;;;24.00;22.90;;;18.40;49.50;;;;;;5013026;28;20528;-57
2023/01/18 12:49:04;;;;;;;25.20;23.90;;;18.40;50.00;;;;;;5013185;28;20438;-54
2023/01/18 12:51:35;;;;;;;24.47;23.33;;;18.40;49.40;;;;;;5013079;28;20931;-54
2023/01/18 12:54:11;;;;;;;25.97;24.40;;;18.40;49.40;;;;;;5012949;28;21009;-58
2023/01/18 12:56:41;;;;;;;25.13;23.87;;;18.30;49.40;;;;;;5013115;28;20446;-59
2023/01/18 12:59:15;;;;;;;24.93;23.83;;;18.40;49.40;;;;;;5012879;28;21034;-57
2023/01/18 13:01:47;;;;;;;24.80;23.53;;;18.40;49.40;;;;;;5013266;28;20468;-56
2023/01/18 13:04:20;;;;;;;25.00;23.87;;;18.40;49.40;;;;;;5012334;28;20450;-56
2023/01/18 13:06:48;;;;;;;23.97;22.77;;;18.40;49.30;;;;;;5012482;28;20453;-59
2023/01/18 13:09:21;;;;;;;25.50;24.00;;;18.40;49.30;;;;;;5012221;28;20454;-55
2023/01/18 13:11:48;;;;;;;24.80;23.60;;;18.40;49.20;;;;;;5012308;28;20465;-53
2023/01/18 13:14:21;;;;;;;24.90;23.50;;;18.40;49.20;;;;;;5012180;28;20490;-59
2023/01/18 13:16:56;;;;;;;25.30;24.10;;;18.40;49.30;;;;;;5011918;28;20932;-55
2023/01/18 13:19:28;;;;;;;24.53;23.40;;;18.40;49.20;;;;;;5011998;28;20947;-57